CMR6 weather

Camrose / St Mary's Hospital Heliport
Camrose, Alberta, Canada

Public forecast

Using degrees Celsius for public forecast. Weather courtesy of forecast.io.

Closest aviation weather report (METAR) to Camrose / St Mary's Hospital Heliport

Closest report is Edmonton International Airport, 32.3 nm (59.8 km) WNW. Retrieved 2020/03/29 16:00 UTC (44 seconds ago):

CYEG 291600Z 10009KT 15SM OVC009 M06/M09 A2963 RMK SC8 SLP081

Closest aviation forecast (TAF) to Camrose / St Mary's Hospital Heliport

Closest forecast is Edmonton International Airport, 32.3 nm (59.8 km) WNW. Retrieved 2020/03/29 15:40 UTC (21 minutes ago):

TAF CYEG 291438Z 2915/3012 11012KT P6SM OVC012 TEMPO 2915/2918 5SM -SN BR OVC006 FM291800 08012KT P6SM BKN010 BKN160 TEMPO 2918/2924 SCT010 BKN160 FM300000 03012KT P6SM BKN015 BKN080 TEMPO 3000/3005 11/2SM -SHSN BKN008 OVC040 FM300500 01012KT 5SM -SN OVC020 TEMPO 3005/3010 2SM -SN OVC010 FM301000 01010KT 6SM -SN OVC015 RMK NXT FCST BY 291800Z